Главная страница
METAR-TAF:

METAR-TAF

Аэропорты :

Куньмин Чаншуй

Куньмин, Китай

широта: 25-01N, долгота: 102-41E, высота над уровнем моря: 1892 м

Текущие метеонаблюдения

Эта сводка был подготовлена 1 час и 7 минут назад, в 06:00 UTC
Ветер 17 Узел от юго-западный, изменяющийся между южный-юго-западный и западный
Температура 19°C
Влажность 26%
Давление 1018 hPa
Видимость 10 км и более
Нет облачности ниже 1500 м, и нет кучево-дождевой облачности

METAR: ZPPP 130600Z 23009MPS 200V260 CAVOK 19/M01 Q1018 NOSIG

Время: 15:07 (07:07 UTC)

Прогноз

Эта сводка был подготовлена 4 часа и 0 минут назад, в 03:07 UTC
Прогноз действительный с 13-го 06 UTC до 14-го 06 UTC
Ветер 23 Узел от юго-западный с порывами до 33 Узел
Видимость 10 км и более
небольшая облачность на высоте 2600 фута
изменения
С 13-го 11 UTC до 13-го 12 UTC
Ветер 14 Узел от юго-западный

TAF: ZPPP 130307Z 1306/1406 22012G17MPS 9999 FEW026 TX19/1308Z TN07/1323Z BECMG 1311/1312 22007MPS

Метеонаблюдения и прогнозы для более 4000 аэропортов (сводки METAR и TAF).

Имеющиеся станции представлены на карте желтыми и красными точками.

Чтобы увидеть название станции, наведите на нее мышь.

Затем щелкните, чтобы увидеть метеонаблюдения и метеопрогнозы.

Управление картой: чтобы увеличить масштаб, щелкните зеленые кнопки с черным крестиком; чтобы уменьшить масштаб, щелкните зеленую кнопку с тире; для просмотра соседних карт щелкайте зеленые стрелки.


METAR-TAF: